Portada
METAR-TAF:

METAR-TAF

Aeroports :

Westerly State Airport

Westerly, Rhode Island, Estats Units d'Amèrica

latitud: 41-20-59N, longitud: 071-47-56W, altitud: 24 m

Observació

L'informe es va fer fa 20 minuts, a les 20:01 UTC
Vent 14 kt del Sud/Sud-Est amb ràfegues de 24 kt
Temperatura 20°C
Humitat 100%
Pressió 1012 hPa
Visibilitat: 1.6 km
Cel ennuvolat a una alçada de 200 ft
Cel cobert a una alçada de 600 ft
pluja, boirina

METAR: KWST 252001Z AUTO 15014G24KT 1SM +RA BR BKN002 OVC006 20/20 A2988 RMK AO2 P0007 T02000200

Hora: 16:21 (20:21 UTC)


TAF: manca

Observacions i pronòstics meteorològics de més de 4000 aeroports (METAR i TAF).

Les estacions disponibles són els punts grocs i vermells al mapa.

Posi el ratolí al punt desitjat per veure el nom de l'estació.

Feu clic per veure les observacions i els pronòstics meteorològics.

Per canviar el mapa: feu clic els botons verds amb una creu de color negre per apropar; al botó verd amb un guió per allunyar la imatge; o en les fletxes verdes per a mapes adjacents.


METAR-TAF: